sensor_id;sensor_type;location;lat;lon;timestamp;temperature;humidity
51719;DHT22;37795;53.236;5.704;2024-01-15T00:01:09;13.10;64.70
51719;DHT22;37795;53.236;5.704;2024-01-15T00:03:35;13.00;64.70
51719;DHT22;37795;53.236;5.704;2024-01-15T00:06:01;13.00;64.70
51719;DHT22;37795;53.236;5.704;2024-01-15T00:08:26;13.00;64.70
51719;DHT22;37795;53.236;5.704;2024-01-15T00:10:52;13.00;64.80
51719;DHT22;37795;53.236;5.704;2024-01-15T00:13:17;12.90;64.80
51719;DHT22;37795;53.236;5.704;2024-01-15T00:15:43;12.90;64.80
51719;DHT22;37795;53.236;5.704;2024-01-15T00:18:09;12.90;64.80
51719;DHT22;37795;53.236;5.704;2024-01-15T00:20:35;12.90;64.80
51719;DHT22;37795;53.236;5.704;2024-01-15T00:23:00;12.90;64.80
51719;DHT22;37795;53.236;5.704;2024-01-15T00:25:26;12.90;64.90
51719;DHT22;37795;53.236;5.704;2024-01-15T00:27:52;12.80;64.90
51719;DHT22;37795;53.236;5.704;2024-01-15T00:30:17;12.80;64.90
51719;DHT22;37795;53.236;5.704;2024-01-15T00:32:43;12.80;64.90
51719;DHT22;37795;53.236;5.704;2024-01-15T00:35:09;12.80;64.90
51719;DHT22;37795;53.236;5.704;2024-01-15T00:37:35;12.80;64.90
51719;DHT22;37795;53.236;5.704;2024-01-15T00:40:01;12.80;64.80
51719;DHT22;37795;53.236;5.704;2024-01-15T00:42:26;12.70;64.80
51719;DHT22;37795;53.236;5.704;2024-01-15T00:44:52;12.70;64.90
51719;DHT22;37795;53.236;5.704;2024-01-15T00:47:19;12.70;64.90
51719;DHT22;37795;53.236;5.704;2024-01-15T00:49:45;12.70;65.00
51719;DHT22;37795;53.236;5.704;2024-01-15T00:52:10;12.60;65.00
51719;DHT22;37795;53.236;5.704;2024-01-15T00:54:36;12.60;65.00
51719;DHT22;37795;53.236;5.704;2024-01-15T00:57:03;12.60;65.10
51719;DHT22;37795;53.236;5.704;2024-01-15T00:59:29;12.60;65.10
51719;DHT22;37795;53.236;5.704;2024-01-15T01:01:54;12.50;65.10
51719;DHT22;37795;53.236;5.704;2024-01-15T01:04:20;12.50;65.20
51719;DHT22;37795;53.236;5.704;2024-01-15T01:06:45;12.50;65.20
51719;DHT22;37795;53.236;5.704;2024-01-15T01:09:11;12.50;65.20
51719;DHT22;37795;53.236;5.704;2024-01-15T01:11:37;12.60;65.10
51719;DHT22;37795;53.236;5.704;2024-01-15T01:14:02;12.60;64.80
51719;DHT22;37795;53.236;5.704;2024-01-15T01:16:28;12.60;64.70
51719;DHT22;37795;53.236;5.704;2024-01-15T01:18:54;12.60;64.70
51719;DHT22;37795;53.236;5.704;2024-01-15T01:21:20;12.50;64.70
51719;DHT22;37795;53.236;5.704;2024-01-15T01:23:46;12.50;64.80
51719;DHT22;37795;53.236;5.704;2024-01-15T01:26:15;12.50;64.90
51719;DHT22;37795;53.236;5.704;2024-01-15T01:28:41;12.50;65.00
51719;DHT22;37795;53.236;5.704;2024-01-15T01:31:07;12.50;64.90
51719;DHT22;37795;53.236;5.704;2024-01-15T01:33:34;12.40;64.90
51719;DHT22;37795;53.236;5.704;2024-01-15T01:35:59;12.40;64.90
51719;DHT22;37795;53.236;5.704;2024-01-15T01:38:25;12.40;65.00
51719;DHT22;37795;53.236;5.704;2024-01-15T01:40:51;12.40;65.10
51719;DHT22;37795;53.236;5.704;2024-01-15T01:43:16;12.40;65.00
51719;DHT22;37795;53.236;5.704;2024-01-15T01:45:43;12.40;65.10
51719;DHT22;37795;53.236;5.704;2024-01-15T01:48:08;12.40;65.00
51719;DHT22;37795;53.236;5.704;2024-01-15T01:50:34;12.40;65.00
51719;DHT22;37795;53.236;5.704;2024-01-15T01:53:01;12.50;64.90
51719;DHT22;37795;53.236;5.704;2024-01-15T01:55:29;12.50;64.90
51719;DHT22;37795;53.236;5.704;2024-01-15T01:57:56;12.50;64.80
51719;DHT22;37795;53.236;5.704;2024-01-15T02:00:22;12.60;64.70
51719;DHT22;37795;53.236;5.704;2024-01-15T02:02:48;12.60;64.50
51719;DHT22;37795;53.236;5.704;2024-01-15T02:05:14;12.60;64.50
51719;DHT22;37795;53.236;5.704;2024-01-15T02:07:44;12.50;64.50
51719;DHT22;37795;53.236;5.704;2024-01-15T02:10:10;12.50;64.60
51719;DHT22;37795;53.236;5.704;2024-01-15T02:12:36;12.50;64.70
51719;DHT22;37795;53.236;5.704;2024-01-15T02:15:01;12.50;64.70
51719;DHT22;37795;53.236;5.704;2024-01-15T02:17:27;12.40;64.70
51719;DHT22;37795;53.236;5.704;2024-01-15T02:19:53;12.40;64.70
51719;DHT22;37795;53.236;5.704;2024-01-15T02:22:18;12.40;64.70
51719;DHT22;37795;53.236;5.704;2024-01-15T02:24:44;12.30;64.80
51719;DHT22;37795;53.236;5.704;2024-01-15T02:27:10;12.30;64.80
51719;DHT22;37795;53.236;5.704;2024-01-15T02:29:36;12.30;65.00
51719;DHT22;37795;53.236;5.704;2024-01-15T02:32:05;12.30;65.00
51719;DHT22;37795;53.236;5.704;2024-01-15T02:34:32;12.30;65.00
51719;DHT22;37795;53.236;5.704;2024-01-15T02:36:58;12.40;64.90
51719;DHT22;37795;53.236;5.704;2024-01-15T02:39:24;12.40;64.80
51719;DHT22;37795;53.236;5.704;2024-01-15T02:41:49;12.40;64.70
51719;DHT22;37795;53.236;5.704;2024-01-15T02:44:15;12.40;64.60
51719;DHT22;37795;53.236;5.704;2024-01-15T02:46:41;12.40;64.50
51719;DHT22;37795;53.236;5.704;2024-01-15T02:49:06;12.40;64.50
51719;DHT22;37795;53.236;5.704;2024-01-15T02:51:32;12.40;64.50
51719;DHT22;37795;53.236;5.704;2024-01-15T02:53:58;12.40;64.50
51719;DHT22;37795;53.236;5.704;2024-01-15T02:56:23;12.60;64.30
51719;DHT22;37795;53.236;5.704;2024-01-15T02:58:49;12.70;64.00
51719;DHT22;37795;53.236;5.704;2024-01-15T03:01:15;12.80;63.90
51719;DHT22;37795;53.236;5.704;2024-01-15T03:03:40;12.90;63.60
51719;DHT22;37795;53.236;5.704;2024-01-15T03:06:06;13.10;63.30
51719;DHT22;37795;53.236;5.704;2024-01-15T03:08:32;13.30;63.00
51719;DHT22;37795;53.236;5.704;2024-01-15T03:10:58;13.40;62.70
51719;DHT22;37795;53.236;5.704;2024-01-15T03:13:24;13.50;62.60
51719;DHT22;37795;53.236;5.704;2024-01-15T03:15:50;13.60;62.60
51719;DHT22;37795;53.236;5.704;2024-01-15T03:18:15;13.90;61.90
51719;DHT22;37795;53.236;5.704;2024-01-15T03:20:41;14.20;61.20
51719;DHT22;37795;53.236;5.704;2024-01-15T03:23:07;14.20;60.70
51719;DHT22;37795;53.236;5.704;2024-01-15T03:25:32;14.30;60.70
51719;DHT22;37795;53.236;5.704;2024-01-15T03:27:58;14.30;60.70
51719;DHT22;37795;53.236;5.704;2024-01-15T03:30:24;14.20;60.70
51719;DHT22;37795;53.236;5.704;2024-01-15T03:32:49;14.10;60.80
51719;DHT22;37795;53.236;5.704;2024-01-15T03:35:15;14.00;61.00
51719;DHT22;37795;53.236;5.704;2024-01-15T03:37:41;14.00;61.00
51719;DHT22;37795;53.236;5.704;2024-01-15T03:40:07;13.90;61.20
51719;DHT22;37795;53.236;5.704;2024-01-15T03:42:33;13.80;61.40
51719;DHT22;37795;53.236;5.704;2024-01-15T03:44:59;13.70;61.50
51719;DHT22;37795;53.236;5.704;2024-01-15T03:47:24;13.70;61.60
51719;DHT22;37795;53.236;5.704;2024-01-15T03:49:50;13.60;61.70
51719;DHT22;37795;53.236;5.704;2024-01-15T03:52:16;13.60;61.80
51719;DHT22;37795;53.236;5.704;2024-01-15T03:54:41;13.50;61.90
51719;DHT22;37795;53.236;5.704;2024-01-15T03:57:07;13.40;62.00
51719;DHT22;37795;53.236;5.704;2024-01-15T03:59:33;13.40;62.10
51719;DHT22;37795;53.236;5.704;2024-01-15T04:01:59;13.30;62.20
51719;DHT22;37795;53.236;5.704;2024-01-15T04:04:24;13.30;62.30
51719;DHT22;37795;53.236;5.704;2024-01-15T04:06:50;13.20;62.50
51719;DHT22;37795;53.236;5.704;2024-01-15T04:09:16;13.20;62.50
51719;DHT22;37795;53.236;5.704;2024-01-15T04:11:41;13.10;62.60
51719;DHT22;37795;53.236;5.704;2024-01-15T04:14:07;13.10;62.80
51719;DHT22;37795;53.236;5.704;2024-01-15T04:16:33;13.00;62.90
51719;DHT22;37795;53.236;5.704;2024-01-15T04:18:58;13.00;63.00
51719;DHT22;37795;53.236;5.704;2024-01-15T04:21:24;13.00;63.00
51719;DHT22;37795;53.236;5.704;2024-01-15T04:23:50;12.90;63.00
51719;DHT22;37795;53.236;5.704;2024-01-15T04:26:15;12.90;63.10
51719;DHT22;37795;53.236;5.704;2024-01-15T04:28:41;12.90;63.10
51719;DHT22;37795;53.236;5.704;2024-01-15T04:31:07;12.90;63.20
51719;DHT22;37795;53.236;5.704;2024-01-15T04:33:32;12.80;63.20
51719;DHT22;37795;53.236;5.704;2024-01-15T04:36:02;12.80;63.30
51719;DHT22;37795;53.236;5.704;2024-01-15T04:38:28;12.80;63.30
51719;DHT22;37795;53.236;5.704;2024-01-15T04:40:54;12.70;63.40
51719;DHT22;37795;53.236;5.704;2024-01-15T04:43:19;12.70;63.40
51719;DHT22;37795;53.236;5.704;2024-01-15T04:45:45;12.70;63.40
51719;DHT22;37795;53.236;5.704;2024-01-15T04:48:11;12.60;63.50
51719;DHT22;37795;53.236;5.704;2024-01-15T04:50:36;12.60;63.60
51719;DHT22;37795;53.236;5.704;2024-01-15T04:53:03;12.60;63.60
51719;DHT22;37795;53.236;5.704;2024-01-15T04:55:28;12.50;63.60
51719;DHT22;37795;53.236;5.704;2024-01-15T04:57:54;12.50;63.70
51719;DHT22;37795;53.236;5.704;2024-01-15T05:00:20;12.50;63.70
51719;DHT22;37795;53.236;5.704;2024-01-15T05:02:45;12.40;63.70
51719;DHT22;37795;53.236;5.704;2024-01-15T05:05:11;12.40;63.80
51719;DHT22;37795;53.236;5.704;2024-01-15T05:07:37;12.40;63.80
51719;DHT22;37795;53.236;5.704;2024-01-15T05:10:02;12.40;63.90
51719;DHT22;37795;53.236;5.704;2024-01-15T05:12:29;12.40;63.90
51719;DHT22;37795;53.236;5.704;2024-01-15T05:14:54;12.40;63.80
51719;DHT22;37795;53.236;5.704;2024-01-15T05:17:20;12.40;63.70
51719;DHT22;37795;53.236;5.704;2024-01-15T05:19:46;12.40;63.80
51719;DHT22;37795;53.236;5.704;2024-01-15T05:22:11;12.40;63.70
51719;DHT22;37795;53.236;5.704;2024-01-15T05:24:37;12.40;63.80
51719;DHT22;37795;53.236;5.704;2024-01-15T05:27:03;12.40;63.70
51719;DHT22;37795;53.236;5.704;2024-01-15T05:29:28;12.30;63.70
51719;DHT22;37795;53.236;5.704;2024-01-15T05:31:54;12.30;63.70
51719;DHT22;37795;53.236;5.704;2024-01-15T05:34:20;12.30;63.70
51719;DHT22;37795;53.236;5.704;2024-01-15T05:36:46;12.30;63.70
51719;DHT22;37795;53.236;5.704;2024-01-15T05:39:13;12.30;63.70
51719;DHT22;37795;53.236;5.704;2024-01-15T05:41:39;12.30;63.80
51719;DHT22;37795;53.236;5.704;2024-01-15T05:44:04;12.20;63.90
51719;DHT22;37795;53.236;5.704;2024-01-15T05:46:30;12.20;63.90
51719;DHT22;37795;53.236;5.704;2024-01-15T05:48:56;12.20;64.00
51719;DHT22;37795;53.236;5.704;2024-01-15T05:51:21;12.20;64.00
51719;DHT22;37795;53.236;5.704;2024-01-15T05:53:47;12.20;63.80
51719;DHT22;37795;53.236;5.704;2024-01-15T05:56:13;12.20;63.70
51719;DHT22;37795;53.236;5.704;2024-01-15T05:58:38;12.20;63.60
51719;DHT22;37795;53.236;5.704;2024-01-15T06:01:04;12.10;63.70
51719;DHT22;37795;53.236;5.704;2024-01-15T06:03:30;12.10;63.70
51719;DHT22;37795;53.236;5.704;2024-01-15T06:05:55;12.10;63.80
51719;DHT22;37795;53.236;5.704;2024-01-15T06:08:21;12.10;63.90
51719;DHT22;37795;53.236;5.704;2024-01-15T06:10:47;12.10;63.90
51719;DHT22;37795;53.236;5.704;2024-01-15T06:13:12;12.00;63.90
51719;DHT22;37795;53.236;5.704;2024-01-15T06:15:39;12.00;63.90
51719;DHT22;37795;53.236;5.704;2024-01-15T06:18:05;12.00;64.00
51719;DHT22;37795;53.236;5.704;2024-01-15T06:20:30;12.00;64.00
51719;DHT22;37795;53.236;5.704;2024-01-15T06:22:56;12.00;64.10
51719;DHT22;37795;53.236;5.704;2024-01-15T06:25:22;11.90;64.10
51719;DHT22;37795;53.236;5.704;2024-01-15T06:27:47;11.90;64.20
51719;DHT22;37795;53.236;5.704;2024-01-15T06:30:13;11.90;64.30
51719;DHT22;37795;53.236;5.704;2024-01-15T06:32:39;12.10;64.30
51719;DHT22;37795;53.236;5.704;2024-01-15T06:35:05;12.30;63.70
51719;DHT22;37795;53.236;5.704;2024-01-15T06:37:31;12.50;63.20
51719;DHT22;37795;53.236;5.704;2024-01-15T06:39:58;12.60;63.10
51719;DHT22;37795;53.236;5.704;2024-01-15T06:42:24;12.80;62.80
51719;DHT22;37795;53.236;5.704;2024-01-15T06:52:05;13.40;61.90
51719;DHT22;37795;53.236;5.704;2024-01-15T06:54:31;13.40;61.60
51719;DHT22;37795;53.236;5.704;2024-01-15T06:56:57;13.50;61.50
51719;DHT22;37795;53.236;5.704;2024-01-15T06:59:23;13.50;61.60
51719;DHT22;37795;53.236;5.704;2024-01-15T07:01:48;13.80;61.30
51719;DHT22;37795;53.236;5.704;2024-01-15T07:04:14;14.10;60.60
51719;DHT22;37795;53.236;5.704;2024-01-15T07:06:40;14.20;60.30
51719;DHT22;37795;53.236;5.704;2024-01-15T07:09:06;14.00;60.50
51719;DHT22;37795;53.236;5.704;2024-01-15T07:11:33;13.90;60.80
51719;DHT22;37795;53.236;5.704;2024-01-15T07:13:58;13.80;61.00
51719;DHT22;37795;53.236;5.704;2024-01-15T07:16:24;13.80;61.20
51719;DHT22;37795;53.236;5.704;2024-01-15T07:18:50;13.70;61.30
51719;DHT22;37795;53.236;5.704;2024-01-15T07:21:15;13.60;61.50
51719;DHT22;37795;53.236;5.704;2024-01-15T07:23:41;13.50;61.60
51719;DHT22;37795;53.236;5.704;2024-01-15T07:26:08;13.50;61.90
51719;DHT22;37795;53.236;5.704;2024-01-15T07:28:33;13.50;61.90
51719;DHT22;37795;53.236;5.704;2024-01-15T07:30:59;13.50;61.80
51719;DHT22;37795;53.236;5.704;2024-01-15T07:33:27;13.60;61.70
51719;DHT22;37795;53.236;5.704;2024-01-15T07:35:52;13.80;61.50
51719;DHT22;37795;53.236;5.704;2024-01-15T07:38:18;13.90;61.30
51719;DHT22;37795;53.236;5.704;2024-01-15T07:40:44;14.10;61.00
51719;DHT22;37795;53.236;5.704;2024-01-15T07:43:09;14.20;60.70
51719;DHT22;37795;53.236;5.704;2024-01-15T07:45:35;14.30;60.70
51719;DHT22;37795;53.236;5.704;2024-01-15T07:48:01;14.40;60.50
51719;DHT22;37795;53.236;5.704;2024-01-15T07:50:26;14.40;60.40
51719;DHT22;37795;53.236;5.704;2024-01-15T07:52:52;14.40;60.50
51719;DHT22;37795;53.236;5.704;2024-01-15T07:55:18;14.40;60.50
51719;DHT22;37795;53.236;5.704;2024-01-15T07:57:44;14.40;60.50
51719;DHT22;37795;53.236;5.704;2024-01-15T08:00:10;14.40;60.50
51719;DHT22;37795;53.236;5.704;2024-01-15T08:02:36;14.40;60.50
51719;DHT22;37795;53.236;5.704;2024-01-15T08:05:02;14.40;60.70
51719;DHT22;37795;53.236;5.704;2024-01-15T08:07:27;14.30;60.80
51719;DHT22;37795;53.236;5.704;2024-01-15T08:09:53;14.20;61.00
51719;DHT22;37795;53.236;5.704;2024-01-15T08:12:19;14.20;61.00
51719;DHT22;37795;53.236;5.704;2024-01-15T08:14:44;14.20;61.10
51719;DHT22;37795;53.236;5.704;2024-01-15T08:17:11;14.10;61.20
51719;DHT22;37795;53.236;5.704;2024-01-15T08:19:36;14.00;61.30
51719;DHT22;37795;53.236;5.704;2024-01-15T08:22:02;14.00;61.30
51719;DHT22;37795;53.236;5.704;2024-01-15T08:24:28;13.90;61.50
51719;DHT22;37795;53.236;5.704;2024-01-15T08:26:54;13.80;61.60
51719;DHT22;37795;53.236;5.704;2024-01-15T08:29:21;13.70;61.80
51719;DHT22;37795;53.236;5.704;2024-01-15T08:31:47;13.70;61.90
51719;DHT22;37795;53.236;5.704;2024-01-15T08:34:13;13.60;62.00
51719;DHT22;37795;53.236;5.704;2024-01-15T08:36:38;13.60;62.10
51719;DHT22;37795;53.236;5.704;2024-01-15T08:39:05;13.50;62.20
51719;DHT22;37795;53.236;5.704;2024-01-15T08:41:33;13.50;62.30
51719;DHT22;37795;53.236;5.704;2024-01-15T08:44:00;13.50;62.70
51719;DHT22;37795;53.236;5.704;2024-01-15T08:46:25;13.50;62.80
51719;DHT22;37795;53.236;5.704;2024-01-15T08:48:51;13.50;62.70
51719;DHT22;37795;53.236;5.704;2024-01-15T08:51:17;13.50;63.10
51719;DHT22;37795;53.236;5.704;2024-01-15T08:53:44;13.50;63.30
51719;DHT22;37795;53.236;5.704;2024-01-15T08:56:09;13.50;63.30
51719;DHT22;37795;53.236;5.704;2024-01-15T08:58:36;13.40;63.30
51719;DHT22;37795;53.236;5.704;2024-01-15T09:01:01;13.40;63.30
51719;DHT22;37795;53.236;5.704;2024-01-15T09:03:27;13.50;63.20
51719;DHT22;37795;53.236;5.704;2024-01-15T09:05:53;13.60;63.00
51719;DHT22;37795;53.236;5.704;2024-01-15T09:08:20;13.70;62.80
51719;DHT22;37795;53.236;5.704;2024-01-15T09:10:45;13.80;62.50
51719;DHT22;37795;53.236;5.704;2024-01-15T09:13:11;13.90;62.20
51719;DHT22;37795;53.236;5.704;2024-01-15T09:15:37;14.00;62.20
51719;DHT22;37795;53.236;5.704;2024-01-15T09:18:03;14.10;61.90
51719;DHT22;37795;53.236;5.704;2024-01-15T09:20:28;14.30;62.00
51719;DHT22;37795;53.236;5.704;2024-01-15T09:22:54;14.40;61.80
51719;DHT22;37795;53.236;5.704;2024-01-15T09:25:20;14.40;61.70
51719;DHT22;37795;53.236;5.704;2024-01-15T09:27:45;14.40;61.60
51719;DHT22;37795;53.236;5.704;2024-01-15T09:30:11;14.50;61.50
51719;DHT22;37795;53.236;5.704;2024-01-15T09:32:37;14.80;61.30
51719;DHT22;37795;53.236;5.704;2024-01-15T09:35:03;15.10;60.60
51719;DHT22;37795;53.236;5.704;2024-01-15T09:37:29;15.20;59.90
51719;DHT22;37795;53.236;5.704;2024-01-15T09:39:55;15.00;60.20
51719;DHT22;37795;53.236;5.704;2024-01-15T09:42:23;14.90;60.50
51719;DHT22;37795;53.236;5.704;2024-01-15T09:44:50;14.80;60.70
51719;DHT22;37795;53.236;5.704;2024-01-15T09:47:17;14.80;60.80
51719;DHT22;37795;53.236;5.704;2024-01-15T09:49:44;14.70;60.90
51719;DHT22;37795;53.236;5.704;2024-01-15T09:52:11;14.70;61.00
51719;DHT22;37795;53.236;5.704;2024-01-15T09:54:37;14.60;61.10
51719;DHT22;37795;53.236;5.704;2024-01-15T09:57:04;14.60;61.00
51719;DHT22;37795;53.236;5.704;2024-01-15T09:59:30;14.60;61.10
51719;DHT22;37795;53.236;5.704;2024-01-15T10:01:57;14.50;61.10
51719;DHT22;37795;53.236;5.704;2024-01-15T10:04:24;14.40;61.10
51719;DHT22;37795;53.236;5.704;2024-01-15T10:06:51;14.40;61.20
51719;DHT22;37795;53.236;5.704;2024-01-15T10:09:17;14.30;61.10
51719;DHT22;37795;53.236;5.704;2024-01-15T10:11:44;14.20;61.30
51719;DHT22;37795;53.236;5.704;2024-01-15T10:14:13;14.10;61.40
51719;DHT22;37795;53.236;5.704;2024-01-15T10:16:39;14.00;61.70
51719;DHT22;37795;53.236;5.704;2024-01-15T10:19:05;14.00;61.70
51719;DHT22;37795;53.236;5.704;2024-01-15T10:21:32;13.90;61.70
51719;DHT22;37795;53.236;5.704;2024-01-15T10:24:02;13.80;61.80
51719;DHT22;37795;53.236;5.704;2024-01-15T10:26:28;13.90;61.70
51719;DHT22;37795;53.236;5.704;2024-01-15T10:28:54;13.80;61.80
51719;DHT22;37795;53.236;5.704;2024-01-15T10:31:20;13.80;61.80
51719;DHT22;37795;53.236;5.704;2024-01-15T10:33:48;13.90;61.50
51719;DHT22;37795;53.236;5.704;2024-01-15T10:36:16;13.80;61.60
51719;DHT22;37795;53.236;5.704;2024-01-15T10:38:43;13.80;61.60
51719;DHT22;37795;53.236;5.704;2024-01-15T10:41:09;13.70;61.70
51719;DHT22;37795;53.236;5.704;2024-01-15T10:43:35;13.70;61.60
51719;DHT22;37795;53.236;5.704;2024-01-15T10:52:05;13.60;61.60
51719;DHT22;37795;53.236;5.704;2024-01-15T10:54:32;13.50;61.70
51719;DHT22;37795;53.236;5.704;2024-01-15T10:56:57;13.50;61.70
51719;DHT22;37795;53.236;5.704;2024-01-15T10:59:23;13.40;61.70
51719;DHT22;37795;53.236;5.704;2024-01-15T11:01:50;13.40;61.80
51719;DHT22;37795;53.236;5.704;2024-01-15T11:04:19;13.40;61.90
51719;DHT22;37795;53.236;5.704;2024-01-15T11:06:49;13.30;61.90
51719;DHT22;37795;53.236;5.704;2024-01-15T11:09:15;13.40;61.90
51719;DHT22;37795;53.236;5.704;2024-01-15T11:11:47;13.30;61.90
51719;DHT22;37795;53.236;5.704;2024-01-15T11:14:45;13.30;62.00
51719;DHT22;37795;53.236;5.704;2024-01-15T11:17:11;13.30;61.90
51719;DHT22;37795;53.236;5.704;2024-01-15T11:19:42;13.20;61.80
51719;DHT22;37795;53.236;5.704;2024-01-15T11:25:22;13.20;61.70
51719;DHT22;37795;53.236;5.704;2024-01-15T11:27:51;13.30;61.80
51719;DHT22;37795;53.236;5.704;2024-01-15T11:30:17;13.40;61.70
51719;DHT22;37795;53.236;5.704;2024-01-15T11:32:46;13.50;61.40
51719;DHT22;37795;53.236;5.704;2024-01-15T11:35:13;13.60;61.20
51719;DHT22;37795;53.236;5.704;2024-01-15T11:40:21;13.90;60.30
51719;DHT22;37795;53.236;5.704;2024-01-15T11:42:48;14.00;60.00
51719;DHT22;37795;53.236;5.704;2024-01-15T11:45:19;14.10;59.80
51719;DHT22;37795;53.236;5.704;2024-01-15T11:48:10;14.20;59.60
51719;DHT22;37795;53.236;5.704;2024-01-15T11:50:40;14.30;59.50
51719;DHT22;37795;53.236;5.704;2024-01-15T11:53:32;14.60;59.10
51719;DHT22;37795;53.236;5.704;2024-01-15T11:55:58;15.10;58.00
51719;DHT22;37795;53.236;5.704;2024-01-15T11:58:25;15.40;57.20
51719;DHT22;37795;53.236;5.704;2024-01-15T12:00:51;15.30;57.10
51719;DHT22;37795;53.236;5.704;2024-01-15T12:03:24;15.20;57.30
51719;DHT22;37795;53.236;5.704;2024-01-15T12:05:53;15.10;57.50
51719;DHT22;37795;53.236;5.704;2024-01-15T12:08:23;15.10;57.70
51719;DHT22;37795;53.236;5.704;2024-01-15T12:10:49;15.00;57.90
51719;DHT22;37795;53.236;5.704;2024-01-15T12:13:16;14.90;57.90
51719;DHT22;37795;53.236;5.704;2024-01-15T12:15:44;14.90;58.00
51719;DHT22;37795;53.236;5.704;2024-01-15T12:18:12;14.80;58.10
51719;DHT22;37795;53.236;5.704;2024-01-15T12:20:40;14.80;58.30
51719;DHT22;37795;53.236;5.704;2024-01-15T12:23:06;14.70;58.40
51719;DHT22;37795;53.236;5.704;2024-01-15T12:25:33;14.60;58.50
51719;DHT22;37795;53.236;5.704;2024-01-15T12:28:00;14.60;58.60
51719;DHT22;37795;53.236;5.704;2024-01-15T12:30:30;14.60;58.70
51719;DHT22;37795;53.236;5.704;2024-01-15T12:32:57;14.50;58.90
51719;DHT22;37795;53.236;5.704;2024-01-15T12:35:24;14.40;59.00
51719;DHT22;37795;53.236;5.704;2024-01-15T12:37:54;14.40;59.10
51719;DHT22;37795;53.236;5.704;2024-01-15T12:40:20;14.30;59.20
51719;DHT22;37795;53.236;5.704;2024-01-15T12:42:46;14.30;59.30
51719;DHT22;37795;53.236;5.704;2024-01-15T12:45:12;14.30;61.10
51719;DHT22;37795;53.236;5.704;2024-01-15T12:47:39;14.30;61.50
51719;DHT22;37795;53.236;5.704;2024-01-15T12:50:12;14.20;61.50
51719;DHT22;37795;53.236;5.704;2024-01-15T12:52:40;14.20;61.30
51719;DHT22;37795;53.236;5.704;2024-01-15T12:55:07;14.20;61.20
51719;DHT22;37795;53.236;5.704;2024-01-15T12:57:34;14.20;61.30
51719;DHT22;37795;53.236;5.704;2024-01-15T13:00:01;14.10;61.10
51719;DHT22;37795;53.236;5.704;2024-01-15T13:02:27;14.10;61.10
51719;DHT22;37795;53.236;5.704;2024-01-15T13:04:52;14.10;61.00
51719;DHT22;37795;53.236;5.704;2024-01-15T13:07:19;14.10;60.90
51719;DHT22;37795;53.236;5.704;2024-01-15T13:09:45;14.10;60.80
51719;DHT22;37795;53.236;5.704;2024-01-15T13:12:11;14.00;60.90
51719;DHT22;37795;53.236;5.704;2024-01-15T13:14:37;14.00;60.90
51719;DHT22;37795;53.236;5.704;2024-01-15T13:17:03;13.90;60.90
51719;DHT22;37795;53.236;5.704;2024-01-15T13:19:29;13.90;60.90
51719;DHT22;37795;53.236;5.704;2024-01-15T13:21:54;13.90;61.00
51719;DHT22;37795;53.236;5.704;2024-01-15T13:24:24;13.80;61.00
51719;DHT22;37795;53.236;5.704;2024-01-15T13:26:49;13.90;61.10
51719;DHT22;37795;53.236;5.704;2024-01-15T13:29:15;13.80;61.00
51719;DHT22;37795;53.236;5.704;2024-01-15T13:31:41;13.80;61.00
51719;DHT22;37795;53.236;5.704;2024-01-15T13:34:07;13.70;61.10
51719;DHT22;37795;53.236;5.704;2024-01-15T13:36:32;13.70;61.20
51719;DHT22;37795;53.236;5.704;2024-01-15T13:38:58;13.70;61.20
51719;DHT22;37795;53.236;5.704;2024-01-15T13:41:24;13.60;61.20
51719;DHT22;37795;53.236;5.704;2024-01-15T13:43:54;13.50;61.30
51719;DHT22;37795;53.236;5.704;2024-01-15T13:46:24;13.40;61.40
51719;DHT22;37795;53.236;5.704;2024-01-15T13:48:52;13.40;61.60
51719;DHT22;37795;53.236;5.704;2024-01-15T13:51:18;13.40;61.50
51719;DHT22;37795;53.236;5.704;2024-01-15T13:53:43;13.40;61.60
51719;DHT22;37795;53.236;5.704;2024-01-15T13:56:09;13.40;61.50
51719;DHT22;37795;53.236;5.704;2024-01-15T13:58:36;13.40;61.50
51719;DHT22;37795;53.236;5.704;2024-01-15T14:01:02;13.60;61.60
51719;DHT22;37795;53.236;5.704;2024-01-15T14:03:32;13.80;61.10
51719;DHT22;37795;53.236;5.704;2024-01-15T14:05:58;14.10;60.60
51719;DHT22;37795;53.236;5.704;2024-01-15T14:08:24;14.30;60.20
51719;DHT22;37795;53.236;5.704;2024-01-15T14:10:51;14.40;59.80
51719;DHT22;37795;53.236;5.704;2024-01-15T14:13:17;14.60;59.70
51719;DHT22;37795;53.236;5.704;2024-01-15T14:15:42;14.80;59.40
51719;DHT22;37795;53.236;5.704;2024-01-15T14:18:08;15.00;58.70
51719;DHT22;37795;53.236;5.704;2024-01-15T14:20:34;15.20;58.40
51719;DHT22;37795;53.236;5.704;2024-01-15T14:22:59;15.30;58.20
51719;DHT22;37795;53.236;5.704;2024-01-15T14:25:25;15.50;58.10
51719;DHT22;37795;53.236;5.704;2024-01-15T14:27:51;15.80;57.50
51719;DHT22;37795;53.236;5.704;2024-01-15T14:30:17;16.10;57.00
51719;DHT22;37795;53.236;5.704;2024-01-15T14:32:43;16.40;56.40
51719;DHT22;37795;53.236;5.704;2024-01-15T14:35:09;16.50;56.20
51719;DHT22;37795;53.236;5.704;2024-01-15T14:37:39;16.30;56.50
51719;DHT22;37795;53.236;5.704;2024-01-15T14:40:05;16.10;56.90
51719;DHT22;37795;53.236;5.704;2024-01-15T14:42:33;16.00;57.20
51719;DHT22;37795;53.236;5.704;2024-01-15T14:44:59;15.90;57.50
51719;DHT22;37795;53.236;5.704;2024-01-15T14:47:26;15.70;57.80
51719;DHT22;37795;53.236;5.704;2024-01-15T14:49:53;15.60;58.00
51719;DHT22;37795;53.236;5.704;2024-01-15T14:52:18;15.40;58.50
51719;DHT22;37795;53.236;5.704;2024-01-15T14:54:45;15.30;58.60
51719;DHT22;37795;53.236;5.704;2024-01-15T14:57:13;15.10;58.90
51719;DHT22;37795;53.236;5.704;2024-01-15T14:59:39;15.00;59.20
51719;DHT22;37795;53.236;5.704;2024-01-15T15:02:05;14.90;59.40
51719;DHT22;37795;53.236;5.704;2024-01-15T15:04:30;14.80;59.60
51719;DHT22;37795;53.236;5.704;2024-01-15T15:06:56;14.70;59.80
51719;DHT22;37795;53.236;5.704;2024-01-15T15:09:22;14.60;60.10
51719;DHT22;37795;53.236;5.704;2024-01-15T15:11:48;14.50;60.20
51719;DHT22;37795;53.236;5.704;2024-01-15T15:14:13;14.40;60.30
51719;DHT22;37795;53.236;5.704;2024-01-15T15:16:39;14.40;60.40
51719;DHT22;37795;53.236;5.704;2024-01-15T15:19:05;14.30;60.60
51719;DHT22;37795;53.236;5.704;2024-01-15T15:21:30;14.20;60.70
51719;DHT22;37795;53.236;5.704;2024-01-15T15:23:56;14.20;60.80
51719;DHT22;37795;53.236;5.704;2024-01-15T15:26:22;14.20;60.80
51719;DHT22;37795;53.236;5.704;2024-01-15T15:28:48;14.20;60.70
51719;DHT22;37795;53.236;5.704;2024-01-15T15:31:14;14.10;60.80
51719;DHT22;37795;53.236;5.704;2024-01-15T15:33:40;14.00;60.90
51719;DHT22;37795;53.236;5.704;2024-01-15T15:36:05;14.00;61.10
51719;DHT22;37795;53.236;5.704;2024-01-15T15:38:32;14.00;61.10
51719;DHT22;37795;53.236;5.704;2024-01-15T15:40:58;13.90;61.20
51719;DHT22;37795;53.236;5.704;2024-01-15T15:43:25;13.80;61.30